createdAt,value
2022-09-11T00:01:31.441Z,99413.52
2022-09-11T00:04:34.317Z,99415.98
2022-09-11T00:07:37.383Z,99413.17
2022-09-11T00:10:43.264Z,99418.23
2022-09-11T00:13:49.725Z,99417.11
2022-09-11T00:16:52.544Z,99415.31
2022-09-11T00:19:55.536Z,99423.71
2022-09-11T00:22:58.998Z,99426.23
2022-09-11T00:26:03.718Z,99426.65
2022-09-11T00:29:06.889Z,99426.70
2022-09-11T00:32:11.218Z,99422.95
2022-09-11T00:35:14.271Z,99421.26
2022-09-11T00:38:17.498Z,99424.42
2022-09-11T00:41:28.346Z,99423.82
2022-09-11T00:44:31.303Z,99431.58
2022-09-11T00:47:35.773Z,99428.84
2022-09-11T00:50:38.891Z,99427.11
2022-09-11T00:53:42.006Z,99425.13
2022-09-11T00:56:45.303Z,99424.84
2022-09-11T00:59:50.883Z,99427.27
2022-09-11T01:02:55.295Z,99426.58
2022-09-11T01:05:59.774Z,99429.77
2022-09-11T01:09:04.662Z,99433.33
2022-09-11T01:12:26.872Z,99439.89
2022-09-11T01:16:04.116Z,99444.09
2022-09-11T01:19:38.426Z,99446.54
2022-09-11T01:23:05.428Z,99440.25
2022-09-11T01:26:27.362Z,99439.63
2022-09-11T01:29:39.968Z,99435.67
2022-09-11T01:32:59.432Z,99432.45
2022-09-11T01:36:10.844Z,99433.41
2022-09-11T01:39:18.188Z,99424.66
2022-09-11T01:42:25.077Z,99426.32
2022-09-11T01:45:31.422Z,99423.11
2022-09-11T01:48:47.948Z,99422.98
2022-09-11T01:51:56.334Z,99421.43
2022-09-11T01:55:13.672Z,99421.05
2022-09-11T01:58:22.934Z,99420.71
2022-09-11T02:01:32.149Z,99419.41
2022-09-11T02:04:51.023Z,99423.32
2022-09-11T02:08:04.305Z,99423.91
2022-09-11T02:11:10.604Z,99425.55
2022-09-11T02:14:21.632Z,99421.49
2022-09-11T02:17:48.700Z,99421.77
2022-09-11T02:20:54.030Z,99422.10
2022-09-11T02:23:57.512Z,99421.99
2022-09-11T02:27:04.166Z,99420.55
2022-09-11T02:30:08.373Z,99421.45
2022-09-11T02:33:33.109Z,99425.89
2022-09-11T02:37:13.234Z,99422.19
2022-09-11T02:40:27.289Z,99415.84
2022-09-11T02:44:08.626Z,99418.28
2022-09-11T02:47:36.870Z,99422.39
2022-09-11T02:51:08.194Z,99424.59
2022-09-11T02:54:27.640Z,99423.90
2022-09-11T02:57:36.867Z,99426.89
2022-09-11T03:00:40.623Z,99424.72
2022-09-11T03:03:46.436Z,99427.65
2022-09-11T03:06:53.009Z,99426.10
2022-09-11T03:09:56.037Z,99425.23
2022-09-11T03:12:59.973Z,99424.70
2022-09-11T03:16:05.082Z,99424.25
2022-09-11T03:19:12.390Z,99424.10
2022-09-11T03:22:15.268Z,99426.07
2022-09-11T03:25:18.650Z,99427.93
2022-09-11T03:28:25.100Z,99424.25
2022-09-11T03:31:28.709Z,99426.95
2022-09-11T03:34:32.177Z,99434.59
2022-09-11T03:37:35.674Z,99436.41
2022-09-11T03:40:39.862Z,99434.23
2022-09-11T03:43:42.874Z,99431.50
2022-09-11T03:46:45.901Z,99426.27
2022-09-11T03:49:49.086Z,99424.84
2022-09-11T03:52:52.063Z,99428.45
2022-09-11T03:55:55.130Z,99429.39
2022-09-11T03:59:00.374Z,99425.55
2022-09-11T04:02:03.558Z,99431.75
2022-09-11T04:05:07.951Z,99432.68
2022-09-11T04:08:13.474Z,99431.90
2022-09-11T04:11:16.841Z,99436.02
2022-09-11T04:14:19.814Z,99435.98
2022-09-11T04:17:22.687Z,99440.98
2022-09-11T04:20:25.506Z,99448.29
2022-09-11T04:23:29.711Z,99453.91
2022-09-11T04:26:34.069Z,99458.36
2022-09-11T04:29:36.892Z,99455.65
2022-09-11T04:32:40.391Z,99452.27
2022-09-11T04:35:43.603Z,99454.65
2022-09-11T04:38:47.950Z,99459.20
2022-09-11T04:41:50.815Z,99467.16
2022-09-11T04:44:54.581Z,99464.27
2022-09-11T04:47:57.524Z,99463.52
2022-09-11T04:51:06.432Z,99467.45
2022-09-11T04:54:18.223Z,99467.75
2022-09-11T04:57:44.997Z,99476.92
2022-09-11T05:00:49.573Z,99469.70
2022-09-11T05:03:53.418Z,99475.08
2022-09-11T05:06:56.180Z,99474.61
2022-09-11T05:09:59.119Z,99472.60
2022-09-11T05:13:01.974Z,99475.42
2022-09-11T05:16:09.943Z,99479.34
2022-09-11T05:19:13.307Z,99482.09
2022-09-11T05:22:16.273Z,99484.10
2022-09-11T05:25:19.446Z,99486.20
2022-09-11T05:28:22.419Z,99489.90
2022-09-11T05:31:26.358Z,99485.01
2022-09-11T05:34:29.812Z,99491.95
2022-09-11T05:37:32.870Z,99494.71
2022-09-11T05:40:35.739Z,99495.42
2022-09-11T05:43:40.384Z,99497.95
2022-09-11T05:46:43.529Z,99503.19
2022-09-11T05:49:47.024Z,99506.45
2022-09-11T05:52:51.316Z,99508.02
2022-09-11T05:55:59.093Z,99514.17
2022-09-11T05:59:02.804Z,99521.94
2022-09-11T06:02:06.037Z,99522.70
2022-09-11T06:05:09.756Z,99518.73
2022-09-11T06:08:13.131Z,99522.97
2022-09-11T06:11:18.775Z,99526.67
2022-09-11T06:14:22.356Z,99524.63
2022-09-11T06:17:25.323Z,99529.64
2022-09-11T06:20:31.267Z,99537.98
2022-09-11T06:23:36.185Z,99540.70
2022-09-11T06:26:39.459Z,99544.11
2022-09-11T06:29:45.192Z,99544.95
2022-09-11T06:32:49.089Z,99545.12
2022-09-11T06:35:59.637Z,99548.63
2022-09-11T06:39:03.107Z,99548.58
2022-09-11T06:42:08.724Z,99550.28
2022-09-11T06:45:12.462Z,99546.87
2022-09-11T06:48:17.872Z,99551.55
2022-09-11T06:51:23.561Z,99554.89
2022-09-11T06:54:28.620Z,99555.96
2022-09-11T06:57:31.603Z,99559.34
2022-09-11T07:00:36.757Z,99558.91
2022-09-11T07:03:45.213Z,99567.81
2022-09-11T07:06:48.399Z,99570.66
2022-09-11T07:09:51.237Z,99571.88
2022-09-11T07:12:56.186Z,99571.61
2022-09-11T07:16:08.271Z,99573.45
2022-09-11T07:19:29.002Z,99572.00
2022-09-11T07:22:34.597Z,99578.74
2022-09-11T07:25:40.921Z,99581.92
2022-09-11T07:28:44.077Z,99577.77
2022-09-11T07:31:48.143Z,99578.31
2022-09-11T07:34:50.958Z,99583.09
2022-09-11T07:37:54.131Z,99581.98
2022-09-11T07:40:57.251Z,99583.39
2022-09-11T07:44:01.132Z,99582.27
2022-09-11T07:47:04.586Z,99587.81
2022-09-11T07:50:08.068Z,99591.85
2022-09-11T07:53:11.034Z,99594.72
2022-09-11T07:56:20.060Z,99592.13
2022-09-11T07:59:23.224Z,99597.55
2022-09-11T08:02:27.404Z,99604.92
2022-09-11T08:05:31.113Z,99610.09
2022-09-11T08:08:35.069Z,99605.29
2022-09-11T08:11:47.250Z,99609.34
2022-09-11T08:14:50.474Z,99614.62
2022-09-11T08:17:53.440Z,99612.61
2022-09-11T08:21:13.079Z,99614.06
2022-09-11T08:24:17.362Z,99614.30
2022-09-11T08:27:20.470Z,99623.92
2022-09-11T08:30:23.622Z,99622.33
2022-09-11T08:33:26.517Z,99627.58
2022-09-11T08:36:29.934Z,99626.30
2022-09-11T08:39:32.975Z,99632.58
2022-09-11T08:42:36.252Z,99636.51
2022-09-11T08:45:39.136Z,99633.27
2022-09-11T08:48:53.866Z,99638.40
2022-09-11T08:52:01.352Z,99636.98
2022-09-11T08:55:05.654Z,99637.55
2022-09-11T08:58:18.541Z,99638.13
2022-09-11T09:01:26.375Z,99640.60
2022-09-11T09:04:55.594Z,99646.05
2022-09-11T09:08:16.268Z,99639.98
2022-09-11T09:11:38.172Z,99645.16
2022-09-11T09:14:59.053Z,99645.45
2022-09-11T09:18:15.123Z,99652.71
2022-09-11T09:21:32.096Z,99653.90
2022-09-11T09:24:43.073Z,99663.36
2022-09-11T09:27:55.776Z,99669.09
2022-09-11T09:31:04.056Z,99668.23
2022-09-11T09:34:15.633Z,99677.80
2022-09-11T09:37:22.461Z,99673.21
2022-09-11T09:40:27.615Z,99666.26
2022-09-11T09:43:54.561Z,99667.74
2022-09-11T09:46:57.731Z,99671.63
2022-09-11T09:50:00.787Z,99676.34
2022-09-11T09:53:18.081Z,99682.77
2022-09-11T09:56:24.129Z,99684.26
2022-09-11T09:59:43.311Z,99680.33
2022-09-11T10:03:04.017Z,99683.02
2022-09-11T10:06:15.231Z,99679.94
2022-09-11T10:09:21.769Z,99687.25
2022-09-11T10:12:27.860Z,99686.48
2022-09-11T10:15:31.890Z,99690.42
2022-09-11T10:18:37.921Z,99692.06
2022-09-11T10:21:41.026Z,99692.79
2022-09-11T10:24:43.995Z,99704.23
2022-09-11T10:27:59.583Z,99701.34
2022-09-11T10:31:04.638Z,99696.88
2022-09-11T10:34:15.641Z,99703.61
2022-09-11T10:37:30.820Z,99705.80
2022-09-11T10:40:39.153Z,99703.67
2022-09-11T10:44:07.782Z,99710.06
2022-09-11T10:47:29.198Z,99703.20
2022-09-11T10:50:34.652Z,99712.73
2022-09-11T10:53:59.116Z,99712.12
2022-09-11T10:57:18.161Z,99707.46
2022-09-11T11:00:23.894Z,99700.32
2022-09-11T11:03:28.314Z,99702.94
2022-09-11T11:06:32.904Z,99694.79
2022-09-11T11:09:47.746Z,99697.36
2022-09-11T11:13:20.501Z,99694.18
2022-09-11T11:16:41.990Z,99696.84
2022-09-11T11:20:21.906Z,99702.24
2022-09-11T11:23:53.441Z,99698.39
2022-09-11T11:27:18.403Z,99705.63
2022-09-11T11:30:27.254Z,99710.20
2022-09-11T11:33:52.082Z,99706.30
2022-09-11T11:37:12.017Z,99707.84
2022-09-11T11:40:28.937Z,99711.61
2022-09-11T11:43:37.733Z,99712.54
2022-09-11T11:46:46.999Z,99719.46
2022-09-11T11:49:59.366Z,99719.17
2022-09-11T11:53:10.495Z,99726.35
2022-09-11T11:56:41.716Z,99731.90
2022-09-11T11:59:58.470Z,99729.73
2022-09-11T12:03:12.834Z,99730.73
2022-09-11T12:06:15.803Z,99732.98
2022-09-11T12:09:19.397Z,99736.64
2022-09-11T12:12:25.051Z,99741.09
2022-09-11T12:15:32.415Z,99735.50
2022-09-11T12:18:35.675Z,99741.97
2022-09-11T12:22:02.388Z,99744.07
2022-09-11T12:25:35.860Z,99743.56
2022-09-11T12:28:39.972Z,99740.71
2022-09-11T12:31:49.737Z,99740.78
2022-09-11T12:35:02.298Z,99738.10
2022-09-11T12:38:23.457Z,99736.62
2022-09-11T12:41:31.356Z,99735.39
2022-09-11T12:44:46.389Z,99732.14
2022-09-11T12:47:49.666Z,99727.60
2022-09-11T12:50:56.550Z,99728.22
2022-09-11T12:54:32.016Z,99733.52
2022-09-11T12:57:38.875Z,99723.86
2022-09-11T13:00:46.364Z,99721.95
2022-09-11T13:03:56.351Z,99716.45
2022-09-11T13:07:04.747Z,99718.52
2022-09-11T13:10:09.712Z,99715.48
2022-09-11T13:13:36.953Z,99715.00
2022-09-11T13:16:45.982Z,99719.16
2022-09-11T13:19:49.510Z,99723.15
2022-09-11T13:22:58.185Z,99723.35
2022-09-11T13:26:04.877Z,99722.61
2022-09-11T13:29:14.218Z,99724.56
2022-09-11T13:32:18.705Z,99726.88
2022-09-11T13:35:27.271Z,99725.98
2022-09-11T13:38:34.413Z,99722.09
2022-09-11T13:41:41.228Z,99726.52
2022-09-11T13:44:47.674Z,99723.07
2022-09-11T13:47:50.747Z,99723.31
2022-09-11T13:50:54.134Z,99724.17
2022-09-11T13:57:51.137Z,99725.19
2022-09-11T14:00:55.746Z,99725.90
2022-09-11T14:03:58.691Z,99730.73
2022-09-11T14:07:01.963Z,99727.23
2022-09-11T14:10:07.951Z,99725.06
2022-09-11T14:13:29.535Z,99726.11
2022-09-11T14:16:36.698Z,99727.48
2022-09-11T14:19:44.921Z,99722.00
2022-09-11T14:22:52.779Z,99725.89
2022-09-11T14:26:16.207Z,99722.55
2022-09-11T14:29:31.880Z,99722.67
2022-09-11T14:32:39.332Z,99721.70
2022-09-11T14:35:46.530Z,99723.05
2022-09-11T14:38:49.698Z,99718.03
2022-09-11T14:41:57.480Z,99715.67
2022-09-11T14:45:08.655Z,99714.17
2022-09-11T14:48:13.663Z,99720.09
2022-09-11T14:51:17.347Z,99715.13
2022-09-11T14:54:28.557Z,99716.76
2022-09-11T14:57:35.188Z,99715.13
2022-09-11T15:00:38.237Z,99720.85
2022-09-11T15:03:42.000Z,99714.94
2022-09-11T15:06:45.204Z,99715.96
2022-09-11T15:09:50.595Z,99714.73
2022-09-11T15:12:56.269Z,99712.05
2022-09-11T15:16:02.445Z,99713.09
2022-09-11T15:19:05.455Z,99714.34
2022-09-11T15:22:08.556Z,99714.89
2022-09-11T15:25:14.097Z,99714.33
2022-09-11T15:28:21.618Z,99714.64
2022-09-11T15:31:25.224Z,99718.88
2022-09-11T15:34:31.895Z,99720.09
2022-09-11T15:37:34.851Z,99720.48
2022-09-11T15:40:39.915Z,99725.30
2022-09-11T15:43:46.388Z,99725.91
2022-09-11T15:46:51.318Z,99722.50
2022-09-11T15:49:54.434Z,99715.85
2022-09-11T15:53:03.116Z,99718.48
2022-09-11T15:56:08.139Z,99721.86
2022-09-11T15:59:12.339Z,99722.17
2022-09-11T16:02:15.156Z,99721.10
2022-09-11T16:05:18.283Z,99721.80
2022-09-11T16:08:23.045Z,99728.82
2022-09-11T16:11:27.099Z,99722.30
2022-09-11T16:14:33.250Z,99732.21
2022-09-11T16:17:36.411Z,99726.67
2022-09-11T16:20:43.891Z,99728.67
2022-09-11T16:23:51.005Z,99731.87
2022-09-11T16:26:56.686Z,99728.59
2022-09-11T16:30:39.615Z,99730.64
2022-09-11T16:33:24.535Z,99719.16
2022-09-11T16:36:28.537Z,99716.65
2022-09-11T16:39:32.140Z,99722.55
2022-09-11T16:43:46.559Z,99720.17
2022-09-11T16:46:49.452Z,99723.02
2022-09-11T16:50:09.165Z,99720.52
2022-09-11T16:53:14.258Z,99723.52
2022-09-11T16:56:20.462Z,99726.75
2022-09-11T16:59:24.507Z,99728.75
2022-09-11T17:02:27.592Z,99726.55
2022-09-11T17:05:30.518Z,99728.36
2022-09-11T17:08:34.425Z,99731.87
2022-09-11T17:11:38.056Z,99733.83
2022-09-11T17:14:41.235Z,99750.47
2022-09-11T17:17:45.690Z,99753.02
2022-09-11T17:20:56.665Z,99753.08
2022-09-11T17:23:59.561Z,99745.08
2022-09-11T17:27:03.012Z,99746.41
2022-09-11T17:30:06.528Z,99748.71
2022-09-11T17:33:09.614Z,99748.77
2022-09-11T17:36:15.157Z,99754.59
2022-09-11T17:39:20.204Z,99761.63
2022-09-11T17:42:24.764Z,99762.20
2022-09-11T17:45:28.995Z,99763.62
2022-09-11T17:48:32.145Z,99765.10
2022-09-11T17:51:35.010Z,99770.31
2022-09-11T17:54:40.847Z,99777.09
2022-09-11T17:57:45.762Z,99772.92
2022-09-11T18:00:48.752Z,99770.46
2022-09-11T18:03:53.519Z,99776.05
2022-09-11T18:06:56.427Z,99776.81
2022-09-11T18:09:59.288Z,99781.19
2022-09-11T18:13:03.182Z,99786.90
2022-09-11T18:16:11.300Z,99790.92
2022-09-11T18:19:16.599Z,99787.92
2022-09-11T18:22:20.026Z,99793.54
2022-09-11T18:25:25.509Z,99792.31
2022-09-11T18:28:29.833Z,99797.98
2022-09-11T18:31:39.863Z,99799.45
2022-09-11T18:34:42.956Z,99800.46
2022-09-11T18:37:45.994Z,99804.33
2022-09-11T18:40:56.350Z,99805.23
2022-09-11T18:44:01.128Z,99806.52
2022-09-11T18:47:04.222Z,99804.85
2022-09-11T18:50:10.062Z,99801.77
2022-09-11T18:53:17.464Z,99817.06
2022-09-11T18:56:22.522Z,99821.23
2022-09-11T18:59:27.797Z,99827.08
2022-09-11T19:02:30.756Z,99823.86
2022-09-11T19:05:33.834Z,99826.86
2022-09-11T19:08:40.963Z,99824.32
2022-09-11T19:11:43.964Z,99826.26
2022-09-11T19:14:48.880Z,99824.39
2022-09-11T19:17:55.434Z,99826.86
2022-09-11T19:21:08.385Z,99835.35
2022-09-11T19:24:12.741Z,99837.59
2022-09-11T19:27:17.348Z,99835.78
2022-09-11T19:30:20.323Z,99832.03
2022-09-11T19:33:23.292Z,99834.87
2022-09-11T19:36:27.392Z,99838.64
2022-09-11T19:39:30.362Z,99837.04
2022-09-11T19:42:33.435Z,99836.27
2022-09-11T19:45:37.434Z,99831.82
2022-09-11T19:48:41.221Z,99831.83
2022-09-11T19:51:45.218Z,99831.73
2022-09-11T19:54:48.497Z,99832.77
2022-09-11T19:57:51.368Z,99831.30
2022-09-11T20:00:54.199Z,99834.63
2022-09-11T20:04:00.482Z,99836.27
2022-09-11T20:07:04.011Z,99839.80
2022-09-11T20:10:08.384Z,99842.98
2022-09-11T20:13:11.551Z,99847.77
2022-09-11T20:16:17.723Z,99855.77
2022-09-11T20:19:20.879Z,99851.36
2022-09-11T20:22:25.377Z,99852.69
2022-09-11T20:25:28.451Z,99851.16
2022-09-11T20:28:31.837Z,99853.80
2022-09-11T20:31:46.465Z,99851.08
2022-09-11T20:34:50.678Z,99854.63
2022-09-11T20:37:53.954Z,99855.60
2022-09-11T20:41:00.514Z,99849.90
2022-09-11T20:44:04.514Z,99849.48
2022-09-11T20:47:10.487Z,99847.89
2022-09-11T20:50:14.135Z,99850.63
2022-09-11T20:53:17.003Z,99844.91
2022-09-11T20:56:22.563Z,99851.06
2022-09-11T20:59:25.708Z,99846.33
2022-09-11T21:02:28.580Z,99852.00
2022-09-11T21:05:31.445Z,99855.60
2022-09-11T21:08:34.621Z,99855.39
2022-09-11T21:11:39.391Z,99857.29
2022-09-11T21:14:43.493Z,99856.05
2022-09-11T21:17:49.276Z,99854.68
2022-09-11T21:20:56.338Z,99860.17
2022-09-11T21:24:01.774Z,99863.98
2022-09-11T21:27:05.301Z,99866.69
2022-09-11T21:30:08.755Z,99866.82
2022-09-11T21:33:12.012Z,99867.73
2022-09-11T21:36:15.197Z,99865.01
2022-09-11T21:39:18.164Z,99866.20
2022-09-11T21:42:21.033Z,99872.40
2022-09-11T21:45:24.002Z,99873.64
2022-09-11T21:48:27.183Z,99872.80
2022-09-11T21:51:30.155Z,99874.02
2022-09-11T21:54:38.381Z,99874.75
2022-09-11T21:57:41.315Z,99875.52
2022-09-11T22:00:44.557Z,99872.38
2022-09-11T22:03:48.077Z,99871.66
2022-09-11T22:06:51.254Z,99874.66
2022-09-11T22:09:56.174Z,99872.27
2022-09-11T22:12:59.144Z,99875.41
2022-09-11T22:16:13.829Z,99877.65
2022-09-11T22:19:16.868Z,99874.30
2022-09-11T22:22:20.034Z,99873.08
2022-09-11T22:25:23.010Z,99866.48
2022-09-11T22:28:25.980Z,99864.45
2022-09-11T22:31:29.240Z,99868.28
2022-09-11T22:34:34.074Z,99872.31
2022-09-11T22:37:37.047Z,99873.19
2022-09-11T22:40:40.122Z,99873.82
2022-09-11T22:43:43.751Z,99875.38
2022-09-11T22:46:48.947Z,99876.17
2022-09-11T22:49:51.899Z,99880.58
2022-09-11T22:52:55.594Z,99888.29
2022-09-11T22:55:59.716Z,99888.02
2022-09-11T22:59:03.794Z,99888.98
2022-09-11T23:02:07.330Z,99888.29
2022-09-11T23:05:29.483Z,99889.66
2022-09-11T23:08:39.071Z,99885.73
2022-09-11T23:11:43.917Z,99885.64
2022-09-11T23:14:47.311Z,99881.38
2022-09-11T23:17:50.168Z,99883.90
2022-09-11T23:20:54.988Z,99885.66
2022-09-11T23:23:59.088Z,99889.10
2022-09-11T23:27:02.058Z,99886.44
2022-09-11T23:30:05.588Z,99885.80
2022-09-11T23:33:08.921Z,99879.85
2022-09-11T23:36:14.174Z,99881.48
2022-09-11T23:39:17.219Z,99877.17
2022-09-11T23:42:20.195Z,99879.29
2022-09-11T23:45:23.088Z,99878.63
2022-09-11T23:48:26.034Z,99881.66
2022-09-11T23:51:29.003Z,99881.91
2022-09-11T23:54:37.710Z,99878.63
2022-09-11T23:57:40.679Z,99883.34
